Strona główna
METAR-TAF:

METAR-TAF

Lotnisko :

Port lotniczy Cam Ranh

Cam Ranh, Wietnam

Szerokość geograficzna: 11-59-53N, Długość geograficzna: 109-13-10E, wysokość: 12 m

Aktualna obserwacja pogody

Raport powstał 17 minut temu, godzina 09:00 UTC
Wiatr 18 kt od północny wschód
Temperatura 27°C
Wilgotność 54%
Ciśnienie 1016 hPa
Widzialność 10 km lub więcej
Mało chmury na wysokości 1500 ft

METAR: VVCR 080900Z 04018KT 9999 FEW015 27/17 Q1016 NOSIG

czas: 16:17 (09:17 UTC)

Prognoza

Raport powstał 4 godziny i 17 minut temu, godzina 05:00 UTC
Prognoza ważna od 08 godzina 06 UTC do 09 godzina 06 UTC
Wiatr 18 kt od północno-północny wschód
Widzialność 10 km lub więcej
Rozproszone chmury na wysokości 1500 ft
Przerywane chmury na wysokości 5000 ft
Przejściowo
od 08 godzina 06 UTC do 08 godzina 12 UTC
Wiatr 18 kt od północny wschód w porywach dochodzący do 34 kt

TAF: VVCR 080500Z 0806/0906 03018KT 9999 SCT015 BKN050 TEMPO 0806/0812 04018G34KT

Obserwacja i prognoza pogody dla ponad 4000 lotnisk (raport METAR i TAF).

Dostępne stacje oznaczono żółtymi i czerwonymi punktami na mapie.

Najedź kursorem aby zobaczyć nazwę stacji.

Kliknij aby zobaczyć obserwacje i prognozy pogody.

Aby zmienić mapę: kliknij na zielony przycisk z czarnym krzyżykiem, aby powiększyć; na zielony przycisk z myślnikiem, aby pomniejszyć; na zielone strzałki, aby przejść do map sąsiednich.


METAR-TAF: